sensor_id;sensor_type;location;lat;lon;timestamp;P1;durP1;ratioP1;P2;durP2;ratioP2
9115;SDS011;4593;53.652;10.168;2023-05-10T00:00:23;6.43;;;3.50;;
9115;SDS011;4593;53.652;10.168;2023-05-10T00:02:49;6.77;;;3.40;;
9115;SDS011;4593;53.652;10.168;2023-05-10T00:05:14;4.97;;;3.40;;
9115;SDS011;4593;53.652;10.168;2023-05-10T00:07:40;5.40;;;3.20;;
9115;SDS011;4593;53.652;10.168;2023-05-10T00:10:09;5.27;;;3.20;;
9115;SDS011;4593;53.652;10.168;2023-05-10T00:12:36;4.37;;;3.10;;
9115;SDS011;4593;53.652;10.168;2023-05-10T00:15:02;5.83;;;3.33;;
9115;SDS011;4593;53.652;10.168;2023-05-10T00:17:28;3.90;;;3.10;;
9115;SDS011;4593;53.652;10.168;2023-05-10T00:19:54;3.90;;;2.90;;
9115;SDS011;4593;53.652;10.168;2023-05-10T00:22:19;3.67;;;3.27;;
9115;SDS011;4593;53.652;10.168;2023-05-10T00:24:46;4.57;;;3.33;;
9115;SDS011;4593;53.652;10.168;2023-05-10T00:27:11;6.83;;;3.33;;
9115;SDS011;4593;53.652;10.168;2023-05-10T00:29:37;5.73;;;3.03;;
9115;SDS011;4593;53.652;10.168;2023-05-10T00:32:02;4.50;;;3.03;;
9115;SDS011;4593;53.652;10.168;2023-05-10T00:34:28;3.50;;;3.03;;
9115;SDS011;4593;53.652;10.168;2023-05-10T00:36:54;6.80;;;3.40;;
9115;SDS011;4593;53.652;10.168;2023-05-10T00:39:19;7.83;;;3.60;;
9115;SDS011;4593;53.652;10.168;2023-05-10T00:41:45;4.63;;;3.53;;
9115;SDS011;4593;53.652;10.168;2023-05-10T00:44:11;4.57;;;3.40;;
9115;SDS011;4593;53.652;10.168;2023-05-10T00:46:36;8.10;;;3.73;;
9115;SDS011;4593;53.652;10.168;2023-05-10T00:49:02;7.80;;;3.27;;
9115;SDS011;4593;53.652;10.168;2023-05-10T00:51:29;3.93;;;3.27;;
9115;SDS011;4593;53.652;10.168;2023-05-10T00:53:56;7.50;;;3.50;;
9115;SDS011;4593;53.652;10.168;2023-05-10T00:56:21;6.63;;;3.33;;
9115;SDS011;4593;53.652;10.168;2023-05-10T00:58:49;3.67;;;3.20;;
9115;SDS011;4593;53.652;10.168;2023-05-10T01:01:15;5.17;;;3.50;;
9115;SDS011;4593;53.652;10.168;2023-05-10T01:03:41;8.37;;;3.50;;
9115;SDS011;4593;53.652;10.168;2023-05-10T01:06:07;6.00;;;3.70;;
9115;SDS011;4593;53.652;10.168;2023-05-10T01:08:34;4.20;;;3.30;;
9115;SDS011;4593;53.652;10.168;2023-05-10T01:11:01;3.73;;;3.03;;
9115;SDS011;4593;53.652;10.168;2023-05-10T01:15:52;3.90;;;3.10;;
9115;SDS011;4593;53.652;10.168;2023-05-10T01:18:19;4.07;;;3.27;;
9115;SDS011;4593;53.652;10.168;2023-05-10T01:20:46;5.50;;;3.20;;
9115;SDS011;4593;53.652;10.168;2023-05-10T01:32:07;7.00;;;3.20;;
9115;SDS011;4593;53.652;10.168;2023-05-10T01:34:34;3.50;;;3.20;;
9115;SDS011;4593;53.652;10.168;2023-05-10T01:37:03;5.83;;;3.40;;
9115;SDS011;4593;53.652;10.168;2023-05-10T01:39:44;3.50;;;3.20;;
9115;SDS011;4593;53.652;10.168;2023-05-10T01:42:23;3.40;;;3.00;;
9115;SDS011;4593;53.652;10.168;2023-05-10T01:47:31;5.03;;;3.50;;
9115;SDS011;4593;53.652;10.168;2023-05-10T01:50:03;4.00;;;3.23;;
9115;SDS011;4593;53.652;10.168;2023-05-10T01:52:36;3.57;;;3.23;;
9115;SDS011;4593;53.652;10.168;2023-05-10T01:55:09;3.23;;;2.90;;
9115;SDS011;4593;53.652;10.168;2023-05-10T01:57:39;4.80;;;3.40;;
9115;SDS011;4593;53.652;10.168;2023-05-10T02:00:08;4.93;;;3.47;;
9115;SDS011;4593;53.652;10.168;2023-05-10T02:02:37;4.03;;;3.47;;
9115;SDS011;4593;53.652;10.168;2023-05-10T02:05:05;3.80;;;3.37;;
9115;SDS011;4593;53.652;10.168;2023-05-10T02:07:36;18.33;;;3.83;;
9115;SDS011;4593;53.652;10.168;2023-05-10T02:10:02;5.27;;;2.93;;
9115;SDS011;4593;53.652;10.168;2023-05-10T02:12:31;7.30;;;3.20;;
9115;SDS011;4593;53.652;10.168;2023-05-10T02:15:00;5.27;;;3.50;;
9115;SDS011;4593;53.652;10.168;2023-05-10T02:17:30;4.13;;;3.03;;
9115;SDS011;4593;53.652;10.168;2023-05-10T02:19:57;3.70;;;3.30;;
9115;SDS011;4593;53.652;10.168;2023-05-10T02:22:25;5.80;;;3.30;;
9115;SDS011;4593;53.652;10.168;2023-05-10T02:24:52;5.17;;;4.00;;
9115;SDS011;4593;53.652;10.168;2023-05-10T02:27:19;3.80;;;3.13;;
9115;SDS011;4593;53.652;10.168;2023-05-10T02:29:48;4.43;;;3.30;;
9115;SDS011;4593;53.652;10.168;2023-05-10T02:32:16;3.23;;;2.80;;
9115;SDS011;4593;53.652;10.168;2023-05-10T02:34:43;12.30;;;3.67;;
9115;SDS011;4593;53.652;10.168;2023-05-10T02:37:10;6.73;;;3.60;;
9115;SDS011;4593;53.652;10.168;2023-05-10T02:39:39;4.50;;;3.57;;
9115;SDS011;4593;53.652;10.168;2023-05-10T02:42:11;4.37;;;3.23;;
9115;SDS011;4593;53.652;10.168;2023-05-10T02:44:48;5.40;;;3.70;;
9115;SDS011;4593;53.652;10.168;2023-05-10T02:47:15;4.10;;;3.70;;
9115;SDS011;4593;53.652;10.168;2023-05-10T02:49:43;4.40;;;3.30;;
9115;SDS011;4593;53.652;10.168;2023-05-10T02:52:08;3.83;;;3.43;;
9115;SDS011;4593;53.652;10.168;2023-05-10T02:54:43;5.63;;;3.50;;
9115;SDS011;4593;53.652;10.168;2023-05-10T02:57:11;6.97;;;3.60;;
9115;SDS011;4593;53.652;10.168;2023-05-10T02:59:41;4.87;;;4.30;;
9115;SDS011;4593;53.652;10.168;2023-05-10T03:02:10;5.87;;;3.60;;
9115;SDS011;4593;53.652;10.168;2023-05-10T03:04:38;4.70;;;3.43;;
9115;SDS011;4593;53.652;10.168;2023-05-10T03:07:03;6.50;;;3.90;;
9115;SDS011;4593;53.652;10.168;2023-05-10T03:09:30;3.50;;;3.20;;
9115;SDS011;4593;53.652;10.168;2023-05-10T03:12:00;5.33;;;3.47;;
9115;SDS011;4593;53.652;10.168;2023-05-10T03:19:55;4.13;;;3.50;;
9115;SDS011;4593;53.652;10.168;2023-05-10T03:22:32;3.77;;;3.43;;
9115;SDS011;4593;53.652;10.168;2023-05-10T03:25:04;4.83;;;3.40;;
9115;SDS011;4593;53.652;10.168;2023-05-10T03:27:31;11.23;;;3.53;;
9115;SDS011;4593;53.652;10.168;2023-05-10T03:29:58;6.07;;;3.37;;
9115;SDS011;4593;53.652;10.168;2023-05-10T03:32:26;4.23;;;3.80;;
9115;SDS011;4593;53.652;10.168;2023-05-10T03:34:55;3.57;;;3.27;;
9115;SDS011;4593;53.652;10.168;2023-05-10T03:37:21;5.83;;;3.50;;
9115;SDS011;4593;53.652;10.168;2023-05-10T03:39:46;4.80;;;3.70;;
9115;SDS011;4593;53.652;10.168;2023-05-10T03:42:12;4.60;;;3.40;;
9115;SDS011;4593;53.652;10.168;2023-05-10T03:44:41;4.03;;;3.50;;
9115;SDS011;4593;53.652;10.168;2023-05-10T03:47:06;3.80;;;3.17;;
9115;SDS011;4593;53.652;10.168;2023-05-10T03:49:32;9.00;;;3.47;;
9115;SDS011;4593;53.652;10.168;2023-05-10T03:51:58;3.60;;;3.30;;
9115;SDS011;4593;53.652;10.168;2023-05-10T03:54:23;5.87;;;3.90;;
9115;SDS011;4593;53.652;10.168;2023-05-10T03:56:49;4.17;;;3.30;;
9115;SDS011;4593;53.652;10.168;2023-05-10T03:59:14;4.53;;;3.20;;
9115;SDS011;4593;53.652;10.168;2023-05-10T04:01:40;5.13;;;3.50;;
9115;SDS011;4593;53.652;10.168;2023-05-10T04:04:06;4.17;;;3.73;;
9115;SDS011;4593;53.652;10.168;2023-05-10T04:06:31;3.77;;;3.20;;
9115;SDS011;4593;53.652;10.168;2023-05-10T04:08:57;6.60;;;3.97;;
9115;SDS011;4593;53.652;10.168;2023-05-10T04:11:25;8.43;;;4.07;;
9115;SDS011;4593;53.652;10.168;2023-05-10T04:13:51;3.73;;;3.33;;
9115;SDS011;4593;53.652;10.168;2023-05-10T04:16:16;6.00;;;3.50;;
9115;SDS011;4593;53.652;10.168;2023-05-10T04:18:42;4.50;;;3.90;;
9115;SDS011;4593;53.652;10.168;2023-05-10T04:21:14;4.67;;;3.30;;
9115;SDS011;4593;53.652;10.168;2023-05-10T04:23:40;6.40;;;3.50;;
9115;SDS011;4593;53.652;10.168;2023-05-10T04:26:06;5.63;;;3.73;;
9115;SDS011;4593;53.652;10.168;2023-05-10T04:28:31;5.33;;;3.67;;
9115;SDS011;4593;53.652;10.168;2023-05-10T04:31:01;3.53;;;3.23;;
9115;SDS011;4593;53.652;10.168;2023-05-10T04:33:27;6.23;;;3.50;;
9115;SDS011;4593;53.652;10.168;2023-05-10T04:35:53;3.67;;;3.30;;
9115;SDS011;4593;53.652;10.168;2023-05-10T04:38:19;3.90;;;3.50;;
9115;SDS011;4593;53.652;10.168;2023-05-10T04:40:45;5.53;;;4.17;;
9115;SDS011;4593;53.652;10.168;2023-05-10T04:43:10;5.33;;;3.60;;
9115;SDS011;4593;53.652;10.168;2023-05-10T04:45:36;5.33;;;3.90;;
9115;SDS011;4593;53.652;10.168;2023-05-10T04:48:02;5.20;;;3.67;;
9115;SDS011;4593;53.652;10.168;2023-05-10T04:50:27;12.70;;;4.23;;
9115;SDS011;4593;53.652;10.168;2023-05-10T04:52:53;3.97;;;3.50;;
9115;SDS011;4593;53.652;10.168;2023-05-10T04:55:19;4.90;;;3.57;;
9115;SDS011;4593;53.652;10.168;2023-05-10T04:57:44;5.50;;;3.57;;
9115;SDS011;4593;53.652;10.168;2023-05-10T05:00:10;4.57;;;3.73;;
9115;SDS011;4593;53.652;10.168;2023-05-10T05:02:37;3.70;;;3.33;;
9115;SDS011;4593;53.652;10.168;2023-05-10T05:05:02;5.80;;;4.00;;
9115;SDS011;4593;53.652;10.168;2023-05-10T05:07:28;4.40;;;3.23;;
9115;SDS011;4593;53.652;10.168;2023-05-10T05:09:55;5.23;;;3.60;;
9115;SDS011;4593;53.652;10.168;2023-05-10T05:12:21;4.37;;;3.67;;
9115;SDS011;4593;53.652;10.168;2023-05-10T05:14:46;8.17;;;3.93;;
9115;SDS011;4593;53.652;10.168;2023-05-10T05:17:12;7.33;;;4.03;;
9115;SDS011;4593;53.652;10.168;2023-05-10T05:19:38;4.87;;;3.73;;
9115;SDS011;4593;53.652;10.168;2023-05-10T05:22:04;4.37;;;3.50;;
9115;SDS011;4593;53.652;10.168;2023-05-10T05:24:35;7.67;;;3.53;;
9115;SDS011;4593;53.652;10.168;2023-05-10T05:27:03;5.30;;;3.83;;
9115;SDS011;4593;53.652;10.168;2023-05-10T05:29:28;5.53;;;3.60;;
9115;SDS011;4593;53.652;10.168;2023-05-10T05:31:54;5.43;;;3.80;;
9115;SDS011;4593;53.652;10.168;2023-05-10T05:34:20;4.83;;;3.83;;
9115;SDS011;4593;53.652;10.168;2023-05-10T05:36:47;4.87;;;4.00;;
9115;SDS011;4593;53.652;10.168;2023-05-10T05:39:13;4.03;;;3.63;;
9115;SDS011;4593;53.652;10.168;2023-05-10T05:41:39;5.23;;;3.63;;
9115;SDS011;4593;53.652;10.168;2023-05-10T05:44:04;4.57;;;4.07;;
9115;SDS011;4593;53.652;10.168;2023-05-10T05:46:30;4.93;;;3.70;;
9115;SDS011;4593;53.652;10.168;2023-05-10T05:48:56;3.67;;;3.37;;
9115;SDS011;4593;53.652;10.168;2023-05-10T05:51:21;8.47;;;3.67;;
9115;SDS011;4593;53.652;10.168;2023-05-10T05:53:47;7.50;;;3.73;;
9115;SDS011;4593;53.652;10.168;2023-05-10T05:56:13;4.63;;;3.70;;
9115;SDS011;4593;53.652;10.168;2023-05-10T05:58:39;8.10;;;3.73;;
9115;SDS011;4593;53.652;10.168;2023-05-10T06:01:04;3.97;;;3.57;;
9115;SDS011;4593;53.652;10.168;2023-05-10T06:03:30;3.47;;;3.17;;
9115;SDS011;4593;53.652;10.168;2023-05-10T06:05:56;7.40;;;4.27;;
9115;SDS011;4593;53.652;10.168;2023-05-10T06:08:21;4.00;;;3.40;;
9115;SDS011;4593;53.652;10.168;2023-05-10T06:10:47;4.83;;;3.40;;
9115;SDS011;4593;53.652;10.168;2023-05-10T06:13:13;3.83;;;3.37;;
9115;SDS011;4593;53.652;10.168;2023-05-10T06:15:38;5.10;;;3.67;;
9115;SDS011;4593;53.652;10.168;2023-05-10T06:18:04;4.80;;;3.60;;
9115;SDS011;4593;53.652;10.168;2023-05-10T06:20:30;4.47;;;4.00;;
9115;SDS011;4593;53.652;10.168;2023-05-10T06:22:56;5.80;;;3.03;;
9115;SDS011;4593;53.652;10.168;2023-05-10T06:25:22;5.83;;;3.30;;
9115;SDS011;4593;53.652;10.168;2023-05-10T06:27:48;5.53;;;3.70;;
9115;SDS011;4593;53.652;10.168;2023-05-10T06:30:14;5.13;;;3.40;;
9115;SDS011;4593;53.652;10.168;2023-05-10T06:32:40;4.30;;;3.60;;
9115;SDS011;4593;53.652;10.168;2023-05-10T06:35:06;8.03;;;3.67;;
9115;SDS011;4593;53.652;10.168;2023-05-10T06:37:33;5.07;;;4.03;;
9115;SDS011;4593;53.652;10.168;2023-05-10T06:39:59;8.10;;;3.67;;
9115;SDS011;4593;53.652;10.168;2023-05-10T06:42:25;3.60;;;3.27;;
9115;SDS011;4593;53.652;10.168;2023-05-10T06:44:52;5.47;;;3.87;;
9115;SDS011;4593;53.652;10.168;2023-05-10T06:47:18;5.90;;;3.80;;
9115;SDS011;4593;53.652;10.168;2023-05-10T06:49:43;5.37;;;3.43;;
9115;SDS011;4593;53.652;10.168;2023-05-10T06:52:09;5.27;;;3.43;;
9115;SDS011;4593;53.652;10.168;2023-05-10T06:54:35;4.20;;;3.60;;
9115;SDS011;4593;53.652;10.168;2023-05-10T06:57:00;3.73;;;3.40;;
9115;SDS011;4593;53.652;10.168;2023-05-10T06:59:27;5.13;;;3.60;;
9115;SDS011;4593;53.652;10.168;2023-05-10T07:01:53;7.70;;;4.03;;
9115;SDS011;4593;53.652;10.168;2023-05-10T07:04:19;4.30;;;3.87;;
9115;SDS011;4593;53.652;10.168;2023-05-10T07:06:45;4.37;;;3.60;;
9115;SDS011;4593;53.652;10.168;2023-05-10T07:09:11;6.47;;;3.83;;
9115;SDS011;4593;53.652;10.168;2023-05-10T07:11:38;4.10;;;3.60;;
9115;SDS011;4593;53.652;10.168;2023-05-10T07:14:03;4.03;;;3.37;;
9115;SDS011;4593;53.652;10.168;2023-05-10T07:16:30;4.73;;;3.50;;
9115;SDS011;4593;53.652;10.168;2023-05-10T07:18:55;3.53;;;3.20;;
9115;SDS011;4593;53.652;10.168;2023-05-10T07:21:21;6.20;;;3.40;;
9115;SDS011;4593;53.652;10.168;2023-05-10T07:23:49;5.17;;;3.77;;
9115;SDS011;4593;53.652;10.168;2023-05-10T07:26:15;4.20;;;3.43;;
9115;SDS011;4593;53.652;10.168;2023-05-10T07:28:41;4.73;;;3.73;;
9115;SDS011;4593;53.652;10.168;2023-05-10T07:31:07;5.07;;;3.60;;
9115;SDS011;4593;53.652;10.168;2023-05-10T07:33:32;6.10;;;3.83;;
9115;SDS011;4593;53.652;10.168;2023-05-10T07:35:58;4.23;;;3.17;;
9115;SDS011;4593;53.652;10.168;2023-05-10T07:38:23;6.40;;;3.70;;
9115;SDS011;4593;53.652;10.168;2023-05-10T07:40:49;6.30;;;3.40;;
9115;SDS011;4593;53.652;10.168;2023-05-10T07:43:15;5.17;;;3.70;;
9115;SDS011;4593;53.652;10.168;2023-05-10T07:45:40;4.00;;;3.60;;
9115;SDS011;4593;53.652;10.168;2023-05-10T07:48:06;3.83;;;3.43;;
9115;SDS011;4593;53.652;10.168;2023-05-10T07:50:32;4.37;;;3.53;;
9115;SDS011;4593;53.652;10.168;2023-05-10T07:52:58;4.43;;;3.60;;
9115;SDS011;4593;53.652;10.168;2023-05-10T07:55:23;3.47;;;3.17;;
9115;SDS011;4593;53.652;10.168;2023-05-10T07:57:49;7.07;;;3.70;;
9115;SDS011;4593;53.652;10.168;2023-05-10T08:00:18;7.67;;;3.40;;
9115;SDS011;4593;53.652;10.168;2023-05-10T08:02:45;3.83;;;3.47;;
9115;SDS011;4593;53.652;10.168;2023-05-10T08:05:10;4.73;;;3.30;;
9115;SDS011;4593;53.652;10.168;2023-05-10T08:07:36;8.33;;;4.00;;
9115;SDS011;4593;53.652;10.168;2023-05-10T08:10:02;4.93;;;3.40;;
9115;SDS011;4593;53.652;10.168;2023-05-10T08:12:28;4.73;;;3.47;;
9115;SDS011;4593;53.652;10.168;2023-05-10T08:14:54;5.73;;;3.80;;
9115;SDS011;4593;53.652;10.168;2023-05-10T08:17:19;4.17;;;3.50;;
9115;SDS011;4593;53.652;10.168;2023-05-10T08:19:45;6.87;;;4.10;;
9115;SDS011;4593;53.652;10.168;2023-05-10T08:22:11;3.63;;;3.30;;
9115;SDS011;4593;53.652;10.168;2023-05-10T08:24:36;4.57;;;3.87;;
9115;SDS011;4593;53.652;10.168;2023-05-10T08:27:06;4.33;;;3.43;;
9115;SDS011;4593;53.652;10.168;2023-05-10T08:29:32;6.50;;;3.90;;
9115;SDS011;4593;53.652;10.168;2023-05-10T08:31:58;5.83;;;3.80;;
9115;SDS011;4593;53.652;10.168;2023-05-10T08:34:23;3.90;;;3.33;;
9115;SDS011;4593;53.652;10.168;2023-05-10T08:36:50;5.87;;;4.13;;
9115;SDS011;4593;53.652;10.168;2023-05-10T08:39:15;5.07;;;3.80;;
9115;SDS011;4593;53.652;10.168;2023-05-10T08:41:41;6.47;;;3.60;;
9115;SDS011;4593;53.652;10.168;2023-05-10T08:44:09;6.17;;;3.67;;
9115;SDS011;4593;53.652;10.168;2023-05-10T08:46:36;4.23;;;3.80;;
9115;SDS011;4593;53.652;10.168;2023-05-10T08:49:04;5.17;;;3.70;;
9115;SDS011;4593;53.652;10.168;2023-05-10T08:51:34;13.33;;;4.30;;
9115;SDS011;4593;53.652;10.168;2023-05-10T08:54:02;3.83;;;3.43;;
9115;SDS011;4593;53.652;10.168;2023-05-10T08:56:28;10.77;;;3.53;;
9115;SDS011;4593;53.652;10.168;2023-05-10T08:58:54;3.87;;;3.30;;
9115;SDS011;4593;53.652;10.168;2023-05-10T09:01:21;3.63;;;2.93;;
9115;SDS011;4593;53.652;10.168;2023-05-10T09:03:47;4.83;;;3.50;;
9115;SDS011;4593;53.652;10.168;2023-05-10T09:06:13;13.17;;;3.90;;
9115;SDS011;4593;53.652;10.168;2023-05-10T09:08:40;4.37;;;3.27;;
9115;SDS011;4593;53.652;10.168;2023-05-10T09:11:07;4.47;;;3.17;;
9115;SDS011;4593;53.652;10.168;2023-05-10T09:13:35;6.33;;;3.43;;
9115;SDS011;4593;53.652;10.168;2023-05-10T09:16:01;4.97;;;3.67;;
9115;SDS011;4593;53.652;10.168;2023-05-10T09:18:28;6.37;;;4.10;;
9115;SDS011;4593;53.652;10.168;2023-05-10T09:20:54;4.33;;;3.67;;
9115;SDS011;4593;53.652;10.168;2023-05-10T09:23:19;6.13;;;3.40;;
9115;SDS011;4593;53.652;10.168;2023-05-10T09:25:45;4.40;;;3.57;;
9115;SDS011;4593;53.652;10.168;2023-05-10T09:28:13;4.40;;;3.53;;
9115;SDS011;4593;53.652;10.168;2023-05-10T09:30:38;3.70;;;3.17;;
9115;SDS011;4593;53.652;10.168;2023-05-10T09:33:04;3.73;;;3.27;;
9115;SDS011;4593;53.652;10.168;2023-05-10T09:35:31;4.60;;;3.23;;
9115;SDS011;4593;53.652;10.168;2023-05-10T09:38:02;6.00;;;3.63;;
9115;SDS011;4593;53.652;10.168;2023-05-10T09:40:29;6.80;;;4.00;;
9115;SDS011;4593;53.652;10.168;2023-05-10T09:42:59;5.43;;;3.90;;
9115;SDS011;4593;53.652;10.168;2023-05-10T09:45:27;3.83;;;3.43;;
9115;SDS011;4593;53.652;10.168;2023-05-10T09:47:55;6.13;;;3.30;;
9115;SDS011;4593;53.652;10.168;2023-05-10T09:50:22;4.13;;;3.50;;
9115;SDS011;4593;53.652;10.168;2023-05-10T09:52:49;12.20;;;4.00;;
9115;SDS011;4593;53.652;10.168;2023-05-10T09:55:20;4.63;;;3.20;;
9115;SDS011;4593;53.652;10.168;2023-05-10T09:57:47;5.97;;;3.73;;
9115;SDS011;4593;53.652;10.168;2023-05-10T10:00:17;5.20;;;3.50;;
9115;SDS011;4593;53.652;10.168;2023-05-10T10:02:47;4.23;;;3.83;;
9115;SDS011;4593;53.652;10.168;2023-05-10T10:05:19;4.53;;;3.73;;
9115;SDS011;4593;53.652;10.168;2023-05-10T10:07:45;5.00;;;3.80;;
9115;SDS011;4593;53.652;10.168;2023-05-10T10:10:11;9.77;;;3.70;;
9115;SDS011;4593;53.652;10.168;2023-05-10T10:12:38;5.13;;;4.20;;
9115;SDS011;4593;53.652;10.168;2023-05-10T10:15:05;5.23;;;3.50;;
9115;SDS011;4593;53.652;10.168;2023-05-10T10:17:32;4.93;;;3.50;;
9115;SDS011;4593;53.652;10.168;2023-05-10T10:20:02;4.03;;;3.60;;
9115;SDS011;4593;53.652;10.168;2023-05-10T10:22:28;4.53;;;3.57;;
9115;SDS011;4593;53.652;10.168;2023-05-10T10:24:53;5.00;;;4.10;;
9115;SDS011;4593;53.652;10.168;2023-05-10T10:27:23;6.83;;;4.00;;
9115;SDS011;4593;53.652;10.168;2023-05-10T10:30:01;5.57;;;4.03;;
9115;SDS011;4593;53.652;10.168;2023-05-10T10:32:49;5.60;;;3.87;;
9115;SDS011;4593;53.652;10.168;2023-05-10T10:35:27;4.23;;;3.83;;
9115;SDS011;4593;53.652;10.168;2023-05-10T10:37:56;4.60;;;3.80;;
9115;SDS011;4593;53.652;10.168;2023-05-10T10:40:26;6.50;;;3.70;;
9115;SDS011;4593;53.652;10.168;2023-05-10T10:42:52;4.87;;;4.10;;
9115;SDS011;4593;53.652;10.168;2023-05-10T10:45:19;7.10;;;4.50;;
9115;SDS011;4593;53.652;10.168;2023-05-10T10:47:46;5.57;;;4.20;;
9115;SDS011;4593;53.652;10.168;2023-05-10T10:50:11;10.27;;;4.57;;
9115;SDS011;4593;53.652;10.168;2023-05-10T10:52:41;4.30;;;3.90;;
9115;SDS011;4593;53.652;10.168;2023-05-10T10:55:14;7.93;;;5.13;;
9115;SDS011;4593;53.652;10.168;2023-05-10T11:00:24;7.63;;;4.50;;
9115;SDS011;4593;53.652;10.168;2023-05-10T11:03:11;6.97;;;4.40;;
9115;SDS011;4593;53.652;10.168;2023-05-10T11:05:44;8.67;;;4.80;;
9115;SDS011;4593;53.652;10.168;2023-05-10T11:15:54;6.07;;;4.70;;
9115;SDS011;4593;53.652;10.168;2023-05-10T11:18:31;7.13;;;4.90;;
9115;SDS011;4593;53.652;10.168;2023-05-10T11:21:00;5.60;;;4.93;;
9115;SDS011;4593;53.652;10.168;2023-05-10T11:26:11;7.63;;;4.73;;
9115;SDS011;4593;53.652;10.168;2023-05-10T11:28:41;6.17;;;5.13;;
9115;SDS011;4593;53.652;10.168;2023-05-10T11:31:08;7.00;;;5.20;;
9115;SDS011;4593;53.652;10.168;2023-05-10T11:33:47;6.60;;;4.67;;
9115;SDS011;4593;53.652;10.168;2023-05-10T11:36:15;6.87;;;4.97;;
9115;SDS011;4593;53.652;10.168;2023-05-10T11:38:45;7.13;;;4.60;;
9115;SDS011;4593;53.652;10.168;2023-05-10T11:41:12;7.53;;;5.10;;
9115;SDS011;4593;53.652;10.168;2023-05-10T11:43:38;6.20;;;5.10;;
9115;SDS011;4593;53.652;10.168;2023-05-10T11:46:05;6.13;;;4.97;;
9115;SDS011;4593;53.652;10.168;2023-05-10T11:48:32;6.93;;;4.90;;
9115;SDS011;4593;53.652;10.168;2023-05-10T11:50:58;6.90;;;5.17;;
9115;SDS011;4593;53.652;10.168;2023-05-10T11:53:27;9.40;;;5.07;;
9115;SDS011;4593;53.652;10.168;2023-05-10T11:55:54;5.80;;;4.67;;
9115;SDS011;4593;53.652;10.168;2023-05-10T11:58:20;7.33;;;5.30;;
9115;SDS011;4593;53.652;10.168;2023-05-10T12:00:47;6.50;;;5.33;;
9115;SDS011;4593;53.652;10.168;2023-05-10T12:03:13;10.60;;;5.17;;
9115;SDS011;4593;53.652;10.168;2023-05-10T12:05:39;10.53;;;4.80;;
9115;SDS011;4593;53.652;10.168;2023-05-10T12:08:13;7.03;;;5.07;;
9115;SDS011;4593;53.652;10.168;2023-05-10T12:10:40;7.13;;;4.80;;
9115;SDS011;4593;53.652;10.168;2023-05-10T12:13:10;6.73;;;5.40;;
9115;SDS011;4593;53.652;10.168;2023-05-10T12:15:41;8.00;;;5.10;;
9115;SDS011;4593;53.652;10.168;2023-05-10T12:18:08;6.53;;;4.40;;
9115;SDS011;4593;53.652;10.168;2023-05-10T12:20:35;7.83;;;4.67;;
9115;SDS011;4593;53.652;10.168;2023-05-10T12:23:01;7.47;;;4.80;;
9115;SDS011;4593;53.652;10.168;2023-05-10T12:25:32;5.90;;;4.53;;
9115;SDS011;4593;53.652;10.168;2023-05-10T12:28:00;5.77;;;4.53;;
9115;SDS011;4593;53.652;10.168;2023-05-10T12:30:29;6.83;;;5.40;;
9115;SDS011;4593;53.652;10.168;2023-05-10T12:32:59;6.07;;;4.43;;
9115;SDS011;4593;53.652;10.168;2023-05-10T12:35:48;4.93;;;4.43;;
9115;SDS011;4593;53.652;10.168;2023-05-10T12:40:54;6.07;;;4.77;;
9115;SDS011;4593;53.652;10.168;2023-05-10T12:43:21;6.40;;;5.17;;
9115;SDS011;4593;53.652;10.168;2023-05-10T12:45:47;6.07;;;4.17;;
9115;SDS011;4593;53.652;10.168;2023-05-10T12:48:14;6.93;;;5.30;;
9115;SDS011;4593;53.652;10.168;2023-05-10T12:50:40;7.70;;;5.00;;
9115;SDS011;4593;53.652;10.168;2023-05-10T12:53:05;6.97;;;5.23;;
9115;SDS011;4593;53.652;10.168;2023-05-10T12:55:31;5.97;;;4.60;;
9115;SDS011;4593;53.652;10.168;2023-05-10T12:57:57;5.83;;;4.83;;
9115;SDS011;4593;53.652;10.168;2023-05-10T13:00:22;6.30;;;4.37;;
9115;SDS011;4593;53.652;10.168;2023-05-10T13:02:48;6.80;;;5.73;;
9115;SDS011;4593;53.652;10.168;2023-05-10T13:05:14;7.83;;;5.17;;
9115;SDS011;4593;53.652;10.168;2023-05-10T13:07:40;8.10;;;5.27;;
9115;SDS011;4593;53.652;10.168;2023-05-10T13:10:06;6.67;;;4.70;;
9115;SDS011;4593;53.652;10.168;2023-05-10T13:12:32;6.00;;;4.73;;
9115;SDS011;4593;53.652;10.168;2023-05-10T13:14:58;5.00;;;4.33;;
9115;SDS011;4593;53.652;10.168;2023-05-10T13:17:24;5.40;;;4.43;;
9115;SDS011;4593;53.652;10.168;2023-05-10T13:19:50;7.40;;;4.60;;
9115;SDS011;4593;53.652;10.168;2023-05-10T13:22:16;7.23;;;4.07;;
9115;SDS011;4593;53.652;10.168;2023-05-10T13:24:42;6.77;;;4.03;;
9115;SDS011;4593;53.652;10.168;2023-05-10T13:27:08;5.83;;;4.60;;
9115;SDS011;4593;53.652;10.168;2023-05-10T13:29:34;5.60;;;4.40;;
9115;SDS011;4593;53.652;10.168;2023-05-10T13:31:59;4.43;;;3.70;;
9115;SDS011;4593;53.652;10.168;2023-05-10T13:34:25;5.20;;;4.47;;
9115;SDS011;4593;53.652;10.168;2023-05-10T13:36:52;4.60;;;3.93;;
9115;SDS011;4593;53.652;10.168;2023-05-10T13:39:19;4.67;;;4.13;;
9115;SDS011;4593;53.652;10.168;2023-05-10T13:41:45;5.97;;;4.03;;
9115;SDS011;4593;53.652;10.168;2023-05-10T13:44:14;6.77;;;4.30;;
9115;SDS011;4593;53.652;10.168;2023-05-10T13:46:40;5.03;;;4.03;;
9115;SDS011;4593;53.652;10.168;2023-05-10T13:49:08;3.90;;;3.33;;
9115;SDS011;4593;53.652;10.168;2023-05-10T13:51:34;5.17;;;3.40;;
9115;SDS011;4593;53.652;10.168;2023-05-10T13:54:01;4.40;;;4.00;;
9115;SDS011;4593;53.652;10.168;2023-05-10T13:56:27;4.27;;;3.33;;
9115;SDS011;4593;53.652;10.168;2023-05-10T14:03:47;4.60;;;4.10;;
9115;SDS011;4593;53.652;10.168;2023-05-10T14:06:13;4.97;;;4.07;;
9115;SDS011;4593;53.652;10.168;2023-05-10T14:08:38;4.40;;;4.00;;
9115;SDS011;4593;53.652;10.168;2023-05-10T14:11:05;4.67;;;3.77;;
9115;SDS011;4593;53.652;10.168;2023-05-10T14:13:30;4.80;;;3.63;;
9115;SDS011;4593;53.652;10.168;2023-05-10T14:15:56;4.37;;;3.67;;
9115;SDS011;4593;53.652;10.168;2023-05-10T14:18:22;3.80;;;3.47;;
9115;SDS011;4593;53.652;10.168;2023-05-10T14:20:47;6.47;;;3.90;;
9115;SDS011;4593;53.652;10.168;2023-05-10T14:23:13;4.63;;;4.20;;
9115;SDS011;4593;53.652;10.168;2023-05-10T14:25:40;4.40;;;3.97;;
9115;SDS011;4593;53.652;10.168;2023-05-10T14:28:06;4.40;;;4.00;;
9115;SDS011;4593;53.652;10.168;2023-05-10T14:30:32;3.87;;;3.33;;
9115;SDS011;4593;53.652;10.168;2023-05-10T14:32:59;4.23;;;3.20;;
9115;SDS011;4593;53.652;10.168;2023-05-10T14:35:26;3.97;;;3.57;;
9115;SDS011;4593;53.652;10.168;2023-05-10T14:37:52;4.07;;;3.33;;
9115;SDS011;4593;53.652;10.168;2023-05-10T14:40:18;4.17;;;3.70;;
9115;SDS011;4593;53.652;10.168;2023-05-10T14:42:44;4.93;;;3.70;;
9115;SDS011;4593;53.652;10.168;2023-05-10T14:45:10;6.30;;;4.47;;
9115;SDS011;4593;53.652;10.168;2023-05-10T14:47:36;6.07;;;3.20;;
9115;SDS011;4593;53.652;10.168;2023-05-10T14:50:01;5.17;;;3.80;;
9115;SDS011;4593;53.652;10.168;2023-05-10T14:52:28;6.07;;;3.87;;
9115;SDS011;4593;53.652;10.168;2023-05-10T14:54:54;3.67;;;3.20;;
9115;SDS011;4593;53.652;10.168;2023-05-10T14:57:20;4.70;;;3.90;;
9115;SDS011;4593;53.652;10.168;2023-05-10T14:59:45;4.97;;;3.60;;
9115;SDS011;4593;53.652;10.168;2023-05-10T15:02:11;3.53;;;3.23;;
9115;SDS011;4593;53.652;10.168;2023-05-10T15:04:37;3.53;;;3.10;;
9115;SDS011;4593;53.652;10.168;2023-05-10T15:07:03;3.77;;;2.73;;
9115;SDS011;4593;53.652;10.168;2023-05-10T15:09:29;4.63;;;3.37;;
9115;SDS011;4593;53.652;10.168;2023-05-10T15:11:54;3.00;;;2.70;;
9115;SDS011;4593;53.652;10.168;2023-05-10T15:14:20;3.43;;;2.80;;
9115;SDS011;4593;53.652;10.168;2023-05-10T15:16:46;4.97;;;3.67;;
9115;SDS011;4593;53.652;10.168;2023-05-10T15:19:12;4.40;;;3.73;;
9115;SDS011;4593;53.652;10.168;2023-05-10T15:21:38;4.33;;;3.10;;
9115;SDS011;4593;53.652;10.168;2023-05-10T15:24:06;4.17;;;2.80;;
9115;SDS011;4593;53.652;10.168;2023-05-10T15:26:32;3.60;;;3.10;;
9115;SDS011;4593;53.652;10.168;2023-05-10T15:28:58;4.00;;;2.73;;
9115;SDS011;4593;53.652;10.168;2023-05-10T15:31:24;3.40;;;3.10;;
9115;SDS011;4593;53.652;10.168;2023-05-10T15:33:50;4.00;;;2.93;;
9115;SDS011;4593;53.652;10.168;2023-05-10T15:36:16;3.77;;;3.17;;
9115;SDS011;4593;53.652;10.168;2023-05-10T15:38:43;3.70;;;3.30;;